Time;durP1;ratioP1;P1;durP2;ratioP2;P2;SDS_P1;SDS_P2;PMS_P1;PMS_P2;Temp;Humidity;BMP_temperature;BMP_pressure;BME280_temperature;BME280_humidity;BME280_pressure;Samples;Min_cycle;Max_cycle;Signal;HPM_P1;HPM_P2
2022/01/12 00:02:14;;;;;;;2.80;1.30;;;1.30;99.90;;;;;;5094637;28;20851;-72
2022/01/12 00:04:41;;;;;;;2.50;1.30;;;1.50;99.90;;;;;;5093970;28;20426;-73
2022/01/12 00:07:08;;;;;;;1.83;1.23;;;1.60;99.90;;;;;;5093913;28;20448;-73
2022/01/12 00:09:35;;;;;;;1.83;1.20;;;1.70;99.90;;;;;;5094428;28;20786;-73
2022/01/12 00:12:02;;;;;;;2.70;1.60;;;1.90;99.90;;;;;;5095414;28;20422;-73
2022/01/12 00:14:31;;;;;;;1.92;1.40;;;2.00;99.90;;;;;;5095346;28;20409;-73
2022/01/12 00:16:59;;;;;;;2.22;1.20;;;2.00;99.90;;;;;;5095280;28;20459;-72
2022/01/12 00:19:27;;;;;;;2.50;1.30;;;1.90;99.90;;;;;;5095076;28;20418;-73
2022/01/12 00:21:55;;;;;;;2.00;1.20;;;1.70;99.90;;;;;;5095211;28;20421;-72
2022/01/12 00:24:22;;;;;;;2.55;1.30;;;1.60;99.90;;;;;;5095910;28;20836;-73
2022/01/12 00:34:57;;;;;;;3.30;1.35;;;1.50;99.90;;;;;;5095093;28;20405;-73
2022/01/12 00:37:24;;;;;;;4.32;1.80;;;1.50;99.90;;;;;;5095551;28;20520;-73
2022/01/12 00:39:56;;;;;;;3.00;1.10;;;1.50;99.90;;;;;;5095830;28;20513;-73
2022/01/12 00:42:26;;;;;;;2.42;1.20;;;1.40;99.90;;;;;;5097505;28;20524;-73
2022/01/12 00:44:54;;;;;;;3.50;1.20;;;1.40;99.90;;;;;;5098814;28;20429;-73
2022/01/12 00:47:21;;;;;;;2.92;1.10;;;1.40;99.90;;;;;;5099345;28;20425;-73
2022/01/12 00:49:48;;;;;;;2.45;1.20;;;1.30;99.90;;;;;;5099281;28;20456;-73
2022/01/12 00:52:15;;;;;;;2.35;1.00;;;1.30;99.90;;;;;;5099465;28;20458;-73
2022/01/12 00:54:45;;;;;;;2.17;1.20;;;1.20;99.90;;;;;;5099187;28;20506;-73
2022/01/12 00:57:12;;;;;;;4.13;1.20;;;1.20;99.90;;;;;;5099084;28;20430;-73
2022/01/12 00:59:40;;;;;;;1.80;1.10;;;1.20;99.90;;;;;;5098731;28;20493;-73
2022/01/12 01:02:09;;;;;;;1.85;1.10;;;1.20;99.90;;;;;;5098814;28;20444;-73
2022/01/12 01:04:36;;;;;;;2.30;1.10;;;1.20;99.90;;;;;;5098638;28;20407;-73
2022/01/12 01:07:03;;;;;;;2.20;1.20;;;1.20;99.90;;;;;;5099803;28;20460;-73
2022/01/12 01:09:31;;;;;;;2.30;1.10;;;1.20;99.90;;;;;;5098836;28;20459;-73
2022/01/12 01:11:58;;;;;;;2.05;1.15;;;1.20;99.90;;;;;;5098325;28;20832;-73
2022/01/12 01:14:37;;;;;;;2.45;1.10;;;1.10;99.90;;;;;;5099069;28;20425;-73
2022/01/12 01:25:28;;;;;;;2.23;1.10;;;1.10;99.90;;;;;;5097101;28;20501;-73
2022/01/12 01:25:43;;;;;;;2.85;1.10;;;1.10;99.90;;;;;;5098251;28;20457;-73
2022/01/12 01:28:11;;;;;;;1.52;1.00;;;1.10;99.90;;;;;;5097480;28;20455;-73
2022/01/12 01:30:39;;;;;;;1.80;1.00;;;1.10;99.90;;;;;;5097852;28;20430;-73
2022/01/12 01:33:10;;;;;;;2.05;1.20;;;1.10;99.90;;;;;;5097604;28;20508;-73
2022/01/12 01:35:41;;;;;;;2.70;1.27;;;1.10;99.90;;;;;;5097377;28;20434;-73
2022/01/12 01:38:09;;;;;;;2.83;1.10;;;1.00;99.90;;;;;;5097401;28;20879;-73
2022/01/12 01:40:41;;;;;;;1.85;1.10;;;1.00;99.90;;;;;;5097416;28;20475;-73
2022/01/12 01:43:18;;;;;;;2.50;1.20;;;1.00;99.90;;;;;;5097838;28;20422;-73
2022/01/12 01:53:56;;;;;;;3.10;1.40;;;1.20;99.90;;;;;;5097751;28;20393;-73
2022/01/12 01:56:23;;;;;;;3.33;1.48;;;1.10;99.90;;;;;;5098055;28;20431;-73
2022/01/12 01:58:50;;;;;;;2.83;1.20;;;1.10;99.90;;;;;;5097561;28;20449;-73
2022/01/12 02:01:17;;;;;;;2.08;1.20;;;1.10;99.90;;;;;;5097863;28;20513;-73
2022/01/12 02:03:46;;;;;;;3.30;1.38;;;1.10;99.90;;;;;;5097985;28;20824;-73
2022/01/12 02:06:13;;;;;;;2.07;1.10;;;1.10;99.90;;;;;;5098211;28;20504;-73
2022/01/12 02:08:40;;;;;;;1.65;1.20;;;1.10;99.90;;;;;;5098287;28;20770;-73
2022/01/12 02:11:08;;;;;;;1.90;1.10;;;1.10;99.90;;;;;;5097520;28;20465;-73
2022/01/12 02:13:36;;;;;;;2.10;1.10;;;1.10;99.90;;;;;;5096910;28;20890;-73
2022/01/12 02:16:03;;;;;;;2.00;1.00;;;1.00;99.90;;;;;;5097640;28;20517;-73
2022/01/12 02:18:42;;;;;;;2.22;1.00;;;0.90;99.90;;;;;;5097201;28;20840;-73
2022/01/12 02:35:21;;;;;;;2.42;1.27;;;1.20;99.90;;;;;;5097020;28;20405;-73
2022/01/12 02:40:39;;;;;;;2.10;1.10;;;1.10;99.90;;;;;;5097003;28;20862;-73
2022/01/12 02:43:13;;;;;;;3.90;1.15;;;1.20;99.90;;;;;;5096442;28;20436;-73
2022/01/12 02:51:14;;;;;;;2.17;1.10;;;0.90;99.90;;;;;;5097071;28;20428;-73
2022/01/12 02:53:43;;;;;;;2.20;1.20;;;0.90;99.90;;;;;;5096440;28;20422;-73
2022/01/12 02:56:11;;;;;;;2.08;1.08;;;0.80;99.90;;;;;;5096421;28;20474;-73
2022/01/12 02:58:40;;;;;;;2.50;1.20;;;0.70;99.90;;;;;;5096590;28;20430;-73
2022/01/12 03:03:55;;;;;;;2.00;1.00;;;0.50;99.90;;;;;;5095054;28;20852;-73
2022/01/12 03:06:25;;;;;;;2.67;1.10;;;0.40;99.90;;;;;;5096630;28;20437;-73
2022/01/12 03:08:54;;;;;;;1.70;1.10;;;0.30;99.90;;;;;;5096433;28;20863;-73
2022/01/12 03:11:22;;;;;;;1.95;1.20;;;0.30;99.90;;;;;;5096622;28;20426;-73
2022/01/12 03:13:50;;;;;;;2.08;1.17;;;0.30;99.90;;;;;;5096801;28;20418;-73
2022/01/12 03:16:19;;;;;;;2.45;1.20;;;0.20;99.90;;;;;;5096743;28;20430;-73
2022/01/12 03:18:48;;;;;;;3.37;1.63;;;0.20;99.90;;;;;;5095944;28;20518;-73
2022/01/12 03:21:16;;;;;;;4.40;2.10;;;0.10;99.90;;;;;;5095745;28;20713;-73
2022/01/12 03:23:44;;;;;;;3.90;1.50;;;0.10;99.90;;;;;;5095919;28;20441;-74
2022/01/12 03:26:12;;;;;;;2.58;1.60;;;0.10;99.90;;;;;;5095584;28;20442;-72
2022/01/12 03:28:41;;;;;;;2.10;1.30;;;0.10;99.90;;;;;;5095504;28;20406;-73
2022/01/12 03:31:15;;;;;;;2.45;1.30;;;0.20;99.90;;;;;;5095119;28;20933;-73
2022/01/12 03:33:54;;;;;;;3.80;1.50;;;0.20;99.90;;;;;;5095743;28;20424;-73
2022/01/12 03:36:40;;;;;;;3.22;1.40;;;0.20;99.90;;;;;;5096503;28;20426;-73
2022/01/12 03:39:12;;;;;;;2.80;1.50;;;0.20;99.90;;;;;;5096244;28;20441;-73
2022/01/12 03:41:42;;;;;;;2.25;1.30;;;0.20;99.90;;;;;;5095738;28;20437;-73
2022/01/12 03:44:11;;;;;;;3.00;1.30;;;0.30;99.90;;;;;;5095503;28;20407;-73
2022/01/12 03:46:44;;;;;;;2.22;1.60;;;0.30;99.90;;;;;;5096041;28;20460;-74
2022/01/12 03:49:11;;;;;;;2.50;1.20;;;0.40;99.90;;;;;;5096139;28;20425;-73
2022/01/12 03:51:38;;;;;;;2.42;1.50;;;0.60;99.90;;;;;;5095906;28;20454;-73
2022/01/12 03:54:06;;;;;;;3.15;1.27;;;0.70;99.90;;;;;;5095518;28;20886;-73
2022/01/12 03:56:33;;;;;;;2.40;1.25;;;0.80;99.90;;;;;;5095263;28;20495;-73
2022/01/12 03:59:02;;;;;;;2.25;1.40;;;0.90;99.90;;;;;;5095400;28;20449;-74
2022/01/12 04:01:29;;;;;;;2.40;1.20;;;1.00;99.90;;;;;;5095441;28;20425;-72
2022/01/12 04:04:02;;;;;;;1.80;1.40;;;1.00;99.90;;;;;;5095612;28;20418;-71
2022/01/12 04:09:14;;;;;;;3.42;1.35;;;0.70;99.90;;;;;;5095361;28;20393;-72
2022/01/12 04:11:40;;;;;;;3.90;1.40;;;0.70;99.90;;;;;;5096086;28;20418;-72
2022/01/12 04:14:09;;;;;;;3.20;1.60;;;0.70;99.90;;;;;;5095266;28;20505;-72
2022/01/12 04:16:37;;;;;;;3.40;1.40;;;0.60;99.90;;;;;;5096268;28;20462;-72
2022/01/12 04:19:04;;;;;;;4.22;1.50;;;0.50;99.90;;;;;;5098791;28;20476;-72
2022/01/12 04:21:35;;;;;;;3.33;1.58;;;0.40;99.90;;;;;;5098956;28;20444;-72
2022/01/12 04:24:02;;;;;;;2.30;1.35;;;0.40;99.90;;;;;;5099392;28;20858;-72
2022/01/12 04:26:30;;;;;;;1.92;1.40;;;0.40;99.90;;;;;;5099808;28;20456;-72
2022/01/12 04:28:57;;;;;;;3.10;1.33;;;0.30;99.90;;;;;;5099381;28;20901;-72
2022/01/12 04:31:26;;;;;;;3.40;1.80;;;0.20;99.90;;;;;;5099050;28;20521;-72
2022/01/12 04:33:53;;;;;;;7.85;1.70;;;0.20;99.90;;;;;;5098977;28;20512;-72
2022/01/12 04:36:20;;;;;;;3.75;1.58;;;0.20;99.90;;;;;;5099206;28;20491;-72
2022/01/12 04:38:47;;;;;;;3.17;1.58;;;0.20;99.90;;;;;;5099004;28;20422;-72
2022/01/12 04:41:14;;;;;;;3.63;2.00;;;0.30;99.90;;;;;;5099068;28;20551;-72
2022/01/12 04:43:44;;;;;;;3.30;1.70;;;0.30;99.90;;;;;;5098551;28;20446;-72
2022/01/12 04:49:20;;;;;;;3.88;1.80;;;0.20;99.90;;;;;;5098679;28;20472;-72
2022/01/12 04:51:47;;;;;;;3.40;2.00;;;0.20;99.90;;;;;;5098920;28;20791;-72
2022/01/12 04:54:14;;;;;;;4.50;1.98;;;0.20;99.90;;;;;;5099048;28;20847;-72
2022/01/12 04:56:41;;;;;;;3.50;2.10;;;0.10;99.90;;;;;;5099267;28;20900;-72
2022/01/12 04:59:08;;;;;;;5.78;2.35;;;0.10;99.90;;;;;;5097724;28;20433;-72
2022/01/12 05:01:38;;;;;;;3.70;2.10;;;0.00;99.90;;;;;;5097624;28;20437;-72
2022/01/12 05:07:07;;;;;;;3.85;2.00;;;0.00;99.90;;;;;;5097827;28;20418;-72
2022/01/12 05:10:00;;;;;;;4.85;2.22;;;0.00;99.90;;;;;;5098411;28;20422;-72
2022/01/12 05:15:18;;;;;;;4.95;2.30;;;0.00;99.90;;;;;;5097727;28;20413;-74
2022/01/12 05:17:45;;;;;;;5.50;2.20;;;0.10;99.90;;;;;;5097557;28;20433;-74
2022/01/12 05:20:14;;;;;;;5.00;2.10;;;0.10;99.90;;;;;;5096954;28;20887;-74
2022/01/12 05:22:42;;;;;;;4.80;2.40;;;0.10;99.90;;;;;;5097471;28;20493;-74
2022/01/12 05:25:09;;;;;;;5.25;2.80;;;0.10;99.90;;;;;;5096899;28;20460;-74
2022/01/12 05:27:36;;;;;;;4.80;2.50;;;0.10;99.90;;;;;;5097260;28;20418;-74
2022/01/12 05:30:04;;;;;;;4.30;2.60;;;0.00;99.90;;;;;;5096114;28;20705;-73
2022/01/12 05:32:31;;;;;;;3.83;2.40;;;-0.10;99.90;;;;;;5095861;28;20458;-74
2022/01/12 05:35:01;;;;;;;5.57;2.90;;;0.00;99.90;;;;;;5095518;28;20458;-73
2022/01/12 05:37:30;;;;;;;5.50;3.72;;;-0.10;99.90;;;;;;5095973;28;20426;-74
2022/01/12 05:39:57;;;;;;;5.30;3.00;;;-0.10;99.90;;;;;;5095839;28;20475;-73
2022/01/12 05:42:24;;;;;;;6.47;3.92;;;-0.10;99.90;;;;;;5095434;28;20473;-73
2022/01/12 05:44:50;;;;;;;6.10;3.30;;;-0.10;99.90;;;;;;5097123;28;20422;-73
2022/01/12 05:47:34;;;;;;;4.97;3.33;;;-0.20;99.90;;;;;;5089139;28;20451;-73
2022/01/12 05:50:00;;;;;;;7.90;3.78;;;-0.30;99.90;;;;;;5087360;28;20433;-73
2022/01/12 05:52:27;;;;;;;4.97;3.13;;;-0.30;99.90;;;;;;5096190;28;20418;-73
2022/01/12 05:54:55;;;;;;;5.30;3.70;;;-0.40;99.90;;;;;;5089974;28;20433;-74
2022/01/12 05:57:22;;;;;;;7.07;3.60;;;-0.40;99.90;;;;;;5085092;28;20447;-73
2022/01/12 05:59:49;;;;;;;7.78;4.28;;;-0.40;99.90;;;;;;5088286;28;20563;-75
2022/01/12 06:02:16;;;;;;;6.25;3.75;;;-0.50;99.90;;;;;;5093794;28;20509;-72
2022/01/12 06:04:43;;;;;;;7.25;4.38;;;-0.50;99.90;;;;;;5095874;28;20413;-72
2022/01/12 06:07:11;;;;;;;6.72;3.83;;;-0.50;99.90;;;;;;5095612;28;20480;-72
2022/01/12 06:09:38;;;;;;;6.65;4.25;;;-0.50;99.90;;;;;;5094635;28;20422;-73
2022/01/12 06:12:07;;;;;;;5.47;3.72;;;-0.60;99.90;;;;;;5095144;28;20418;-72
2022/01/12 06:14:34;;;;;;;6.82;3.88;;;-0.60;99.90;;;;;;5095896;28;20497;-72
2022/01/12 06:17:01;;;;;;;6.07;3.55;;;-0.60;99.90;;;;;;5096389;28;20476;-73
2022/01/12 06:19:28;;;;;;;6.72;3.25;;;-0.40;99.90;;;;;;5096067;28;20516;-72
2022/01/12 06:21:54;;;;;;;5.80;3.50;;;0.60;99.90;;;;;;5095678;28;20457;-72
2022/01/12 06:24:21;;;;;;;7.07;3.50;;;0.70;99.90;;;;;;5096246;28;20492;-72
2022/01/12 06:26:49;;;;;;;6.22;3.60;;;0.60;99.90;;;;;;5095820;28;20520;-72
2022/01/12 06:29:27;;;;;;;7.87;4.53;;;0.20;99.90;;;;;;5096408;28;20422;-72
2022/01/12 06:32:03;;;;;;;7.70;3.97;;;0.10;99.90;;;;;;5096025;28;20475;-72
2022/01/12 06:34:31;;;;;;;6.90;4.45;;;-0.10;99.90;;;;;;5095289;28;20517;-72
2022/01/12 06:37:02;;;;;;;7.27;4.43;;;-0.20;99.90;;;;;;5095093;28;20406;-72
2022/01/12 06:39:39;;;;;;;9.95;5.43;;;-0.30;99.90;;;;;;5095383;28;20819;-73
2022/01/12 06:42:09;;;;;;;10.32;5.18;;;-0.30;99.90;;;;;;5094757;28;20429;-72
2022/01/12 06:44:37;;;;;;;8.23;4.75;;;-0.50;99.90;;;;;;5095317;28;20437;-73
2022/01/12 06:47:05;;;;;;;6.28;4.38;;;-0.50;99.90;;;;;;5093047;28;20453;-73
2022/01/12 06:49:32;;;;;;;5.82;4.00;;;-0.50;99.90;;;;;;5095412;28;20441;-72
2022/01/12 06:52:00;;;;;;;7.63;4.38;;;-0.50;99.90;;;;;;5093780;28;20457;-72
2022/01/12 06:54:28;;;;;;;9.27;4.40;;;-0.50;99.90;;;;;;5092683;28;20422;-73
2022/01/12 06:56:55;;;;;;;7.35;4.47;;;-0.60;99.90;;;;;;5092703;28;20418;-73
2022/01/12 06:59:23;;;;;;;8.50;5.80;;;-0.60;99.90;;;;;;5091289;28;20879;-72
2022/01/12 07:01:52;;;;;;;8.13;4.60;;;-0.70;99.90;;;;;;5092351;28;20422;-72
2022/01/12 07:04:20;;;;;;;9.70;5.50;;;-0.70;99.90;;;;;;5095264;28;20453;-73
2022/01/12 07:06:47;;;;;;;9.03;4.90;;;-0.80;99.90;;;;;;5093880;28;20486;-73
2022/01/12 07:09:14;;;;;;;11.23;6.50;;;-0.90;99.90;;;;;;5092376;28;20516;-73
2022/01/12 07:11:42;;;;;;;9.48;5.38;;;-0.90;99.90;;;;;;5091364;28;20512;-73
2022/01/12 07:14:09;;;;;;;8.85;5.38;;;-0.90;99.90;;;;;;5091513;28;20480;-72
2022/01/12 07:16:36;;;;;;;11.23;5.95;;;-0.90;99.90;;;;;;5092765;28;20509;-73
2022/01/12 07:19:05;;;;;;;10.68;6.15;;;-0.90;99.90;;;;;;5092704;28;20430;-73
2022/01/12 07:21:32;;;;;;;10.98;5.95;;;-0.90;99.90;;;;;;5091788;28;20452;-73
2022/01/12 07:24:00;;;;;;;9.73;5.88;;;-0.90;99.90;;;;;;5093370;28;20520;-73
2022/01/12 07:26:29;;;;;;;9.02;5.60;;;-0.90;99.90;;;;;;5092289;28;20449;-73
2022/01/12 07:28:59;;;;;;;11.23;7.20;;;-0.90;99.90;;;;;;5088676;28;20430;-73
2022/01/12 07:31:28;;;;;;;9.20;5.47;;;-1.00;99.90;;;;;;5093094;28;20879;-73
2022/01/12 07:33:55;;;;;;;8.80;4.97;;;-1.00;99.90;;;;;;5088607;28;20908;-73
2022/01/12 07:36:24;;;;;;;11.63;6.00;;;-1.00;99.90;;;;;;5089687;28;20425;-73
2022/01/12 07:38:55;;;;;;;13.50;6.60;;;-1.00;99.90;;;;;;5091243;28;20462;-73
2022/01/12 07:41:23;;;;;;;7.82;5.65;;;-0.90;99.90;;;;;;5091802;28;20505;-73
2022/01/12 07:43:53;;;;;;;6.43;2.10;;;-0.90;99.90;;;;;;5095359;28;20203;-72
2022/01/12 07:46:21;;;;;;;4.07;1.97;;;-0.70;99.90;;;;;;5095654;28;20450;-72
2022/01/12 07:48:48;;;;;;;4.63;1.57;;;-0.80;99.90;;;;;;5094806;28;20552;-71
2022/01/12 07:51:23;;;;;;;6.37;2.30;;;-0.70;99.90;;;;;;5098323;28;20500;-70
2022/01/12 07:53:52;;;;;;;6.57;2.47;;;-0.90;99.90;;;;;;5099893;28;20934;-69
2022/01/12 07:56:19;;;;;;;3.20;1.93;;;-0.90;99.90;;;;;;5099698;28;20480;-71
2022/01/12 07:58:48;;;;;;;6.97;2.73;;;-1.00;99.90;;;;;;5099012;28;20753;-70
2022/01/12 08:01:18;;;;;;;9.50;2.03;;;-1.00;99.90;;;;;;5099619;28;20572;-71
2022/01/12 08:03:49;;;;;;;2.10;1.07;;;-0.90;99.90;;;;;;5098790;28;20887;-71
2022/01/12 08:06:23;;;;;;;5.00;2.37;;;-0.70;99.90;;;;;;5099437;28;20456;-71
2022/01/12 08:08:52;;;;;;;4.90;2.13;;;0.70;99.90;;;;;;5099508;28;20457;-72
2022/01/12 08:11:19;;;;;;;7.73;2.90;;;1.80;99.90;;;;;;5098757;28;20437;-72
2022/01/12 08:13:49;;;;;;;6.47;2.80;;;2.00;99.90;;;;;;5097756;28;20503;-72
2022/01/12 08:16:21;;;;;;;3.50;1.77;;;1.60;99.90;;;;;;5097693;28;20460;-72
2022/01/12 08:18:53;;;;;;;5.77;2.63;;;1.10;99.90;;;;;;5085639;28;20473;-72
2022/01/12 08:21:24;;;;;;;3.40;2.23;;;0.80;99.90;;;;;;5097972;28;21113;-72
2022/01/12 08:23:57;;;;;;;4.90;1.97;;;0.60;99.90;;;;;;5098819;28;20510;-71
2022/01/12 08:26:27;;;;;;;4.07;1.23;;;0.30;99.90;;;;;;5098858;28;20495;-72
2022/01/12 08:28:58;;;;;;;2.73;1.67;;;0.20;99.90;;;;;;5080022;28;20900;-72
2022/01/12 08:31:28;;;;;;;10.15;5.13;;;0.00;99.90;;;;;;5097919;28;20878;-71
2022/01/12 08:33:58;;;;;;;5.93;3.30;;;-0.10;99.90;;;;;;5098870;28;20233;-72
2022/01/12 08:36:30;;;;;;;6.30;2.90;;;-0.20;99.90;;;;;;5096866;28;20511;-71
2022/01/12 08:39:03;;;;;;;6.53;3.53;;;-0.20;99.90;;;;;;5096676;28;20767;-72
2022/01/12 08:41:30;;;;;;;6.27;1.57;;;-0.10;99.90;;;;;;5097260;28;20489;-70
2022/01/12 08:44:01;;;;;;;5.43;2.73;;;-0.10;99.90;;;;;;5098505;28;20488;-70
2022/01/12 08:46:34;;;;;;;4.07;1.17;;;-0.10;99.90;;;;;;5098707;28;20545;-72
2022/01/12 08:49:04;;;;;;;4.93;1.70;;;0.30;99.90;;;;;;5097752;28;20469;-70
2022/01/12 08:51:40;;;;;;;2.93;1.60;;;0.80;99.90;;;;;;5098563;28;20480;-73
2022/01/12 08:54:09;;;;;;;6.57;1.93;;;0.60;99.90;;;;;;5098773;28;20454;-69
2022/01/12 08:56:38;;;;;;;5.90;2.13;;;0.50;99.90;;;;;;5097721;28;20445;-72
2022/01/12 08:59:07;;;;;;;5.83;1.97;;;0.40;99.90;;;;;;5097197;28;20462;-70
2022/01/12 09:01:34;;;;;;;4.00;1.07;;;0.30;99.90;;;;;;5098520;28;20481;-71
2022/01/12 09:04:01;;;;;;;4.83;1.60;;;0.20;99.90;;;;;;5098537;28;20462;-73
2022/01/12 09:06:31;;;;;;;3.57;1.17;;;0.20;99.90;;;;;;5098808;28;20536;-73
2022/01/12 09:09:10;;;;;;;2.73;1.30;;;0.10;99.90;;;;;;5099783;28;20495;-73
2022/01/12 09:11:39;;;;;;;5.27;2.20;;;0.20;99.90;;;;;;5098187;28;20835;-73
2022/01/12 09:14:15;;;;;;;4.53;1.70;;;0.20;99.90;;;;;;5098497;28;20833;-73
2022/01/12 09:16:55;;;;;;;7.33;1.70;;;0.30;99.90;;;;;;5098271;28;20523;-72
2022/01/12 09:19:28;;;;;;;3.33;1.87;;;0.60;99.90;;;;;;5097564;28;20891;-71
2022/01/12 09:21:58;;;;;;;2.43;1.80;;;0.50;99.90;;;;;;5097320;28;20798;-71
2022/01/12 09:24:31;;;;;;;4.83;1.80;;;0.40;99.90;;;;;;5097103;28;20438;-71
2022/01/12 09:27:05;;;;;;;8.10;2.30;;;0.30;99.90;;;;;;5097530;28;20476;-70
2022/01/12 09:29:39;;;;;;;6.20;1.73;;;0.30;99.90;;;;;;5096800;28;20450;-71
2022/01/12 09:32:07;;;;;;;4.73;1.80;;;0.30;99.90;;;;;;5064536;28;20442;-71
2022/01/12 09:34:38;;;;;;;20.43;1.10;;;0.40;99.90;;;;;;5084561;28;20474;-71
2022/01/12 09:37:08;;;;;;;5.03;1.50;;;0.50;99.90;;;;;;5098016;28;20524;-71
2022/01/12 09:39:37;;;;;;;6.93;2.40;;;0.80;99.90;;;;;;5097290;28;20963;-71
2022/01/12 09:42:05;;;;;;;3.60;1.43;;;1.00;99.90;;;;;;5096427;28;20552;-71
2022/01/12 09:44:34;;;;;;;2.33;1.67;;;1.10;99.90;;;;;;5097176;28;20453;-70
2022/01/12 09:47:10;;;;;;;3.50;1.67;;;1.00;99.90;;;;;;5097868;28;20450;-71
2022/01/12 09:49:41;;;;;;;2.90;1.57;;;1.00;99.90;;;;;;5097964;28;20476;-71
2022/01/12 09:52:09;;;;;;;1.87;1.50;;;1.00;99.90;;;;;;5097928;28;20516;-72
2022/01/12 09:54:46;;;;;;;6.40;1.87;;;1.00;99.90;;;;;;5097171;28;20483;-72
2022/01/12 09:57:21;;;;;;;6.40;2.10;;;0.90;99.90;;;;;;5086587;28;20608;-72
2022/01/12 09:59:54;;;;;;;5.63;3.00;;;1.00;99.90;;;;;;5097740;28;20457;-72
2022/01/12 10:02:23;;;;;;;9.90;3.23;;;1.00;99.90;;;;;;5097574;28;20949;-72
2022/01/12 10:05:00;;;;;;;5.20;1.50;;;1.30;99.90;;;;;;5097290;28;20488;-72
2022/01/12 10:07:28;;;;;;;4.67;1.60;;;1.40;99.90;;;;;;5097917;28;20748;-71
2022/01/12 10:10:04;;;;;;;7.33;1.20;;;1.50;99.90;;;;;;5097248;28;20506;-72
2022/01/12 10:12:40;;;;;;;3.10;1.93;;;1.30;99.90;;;;;;5096101;28;20536;-72
2022/01/12 10:15:11;;;;;;;3.20;1.53;;;1.20;99.90;;;;;;5095785;28;20546;-75
2022/01/12 10:17:46;;;;;;;4.47;1.50;;;1.50;99.90;;;;;;5098098;28;20437;-73
2022/01/12 10:20:17;;;;;;;4.50;1.27;;;1.90;99.90;;;;;;5098096;28;20488;-72
2022/01/12 10:23:00;;;;;;;2.73;1.57;;;2.10;99.90;;;;;;5096032;28;20445;-71
2022/01/12 10:25:33;;;;;;;6.93;1.40;;;2.80;99.90;;;;;;5078746;28;20453;-72
2022/01/12 10:28:17;;;;;;;4.60;1.60;;;2.50;99.90;;;;;;5096583;28;20457;-72
2022/01/12 10:31:01;;;;;;;4.03;1.73;;;2.20;99.90;;;;;;5095671;28;20880;-70
2022/01/12 10:33:31;;;;;;;4.70;1.60;;;2.30;99.90;;;;;;5095236;28;20477;-71
2022/01/12 10:36:06;;;;;;;3.70;1.40;;;2.60;99.90;;;;;;5095335;28;20458;-72
2022/01/12 10:38:36;;;;;;;5.40;1.53;;;2.80;99.90;;;;;;5096711;28;20449;-71
2022/01/12 10:41:05;;;;;;;3.23;1.40;;;3.20;99.90;;;;;;5077145;28;20568;-70
2022/01/12 10:43:36;;;;;;;4.50;1.80;;;3.60;99.90;;;;;;5077415;28;20485;-72
2022/01/12 10:46:10;;;;;;;5.23;1.80;;;4.20;99.90;;;;;;5094158;28;20449;-71
2022/01/12 10:48:51;;;;;;;3.20;1.77;;;4.20;99.90;;;;;;5095971;28;20474;-70
2022/01/12 10:51:47;;;;;;;5.90;2.70;;;3.80;99.90;;;;;;5095336;28;20453;-73
2022/01/12 10:54:16;;;;;;;5.43;1.60;;;3.50;99.90;;;;;;5076521;28;20499;-70
2022/01/12 10:56:48;;;;;;;3.43;1.40;;;3.40;99.90;;;;;;5090216;28;20457;-70
2022/01/12 10:59:20;;;;;;;4.33;1.80;;;3.50;99.90;;;;;;5094840;28;20437;-70
2022/01/12 11:01:49;;;;;;;6.07;2.20;;;4.30;99.90;;;;;;5077781;28;20842;-70
2022/01/12 11:04:21;;;;;;;5.27;1.67;;;4.80;99.90;;;;;;5094878;28;20450;-71
2022/01/12 11:06:50;;;;;;;5.00;2.70;;;4.80;99.90;;;;;;5094695;28;20446;-70
2022/01/12 11:12:02;;;;;;;2.10;1.77;;;4.40;99.90;;;;;;5094212;28;20461;-71
2022/01/12 11:14:30;;;;;;;4.70;3.03;;;4.20;99.90;;;;;;5076677;28;20453;-71
2022/01/12 11:17:01;;;;;;;4.73;1.97;;;4.20;99.90;;;;;;5093751;28;20419;-71
2022/01/12 11:19:52;;;;;;;3.20;1.70;;;3.90;99.90;;;;;;5094905;28;20468;-71
2022/01/12 11:22:31;;;;;;;5.07;2.17;;;4.00;99.90;;;;;;5094345;28;20448;-72
2022/01/12 11:25:02;;;;;;;3.60;1.63;;;4.50;99.90;;;;;;5093240;28;20444;-71
2022/01/12 11:27:51;;;;;;;4.53;2.43;;;4.90;99.90;;;;;;5094638;28;20858;-71
2022/01/12 11:30:52;;;;;;;7.00;3.03;;;4.80;99.90;;;;;;5094776;28;20424;-72
2022/01/12 11:36:12;;;;;;;3.40;1.60;;;4.00;99.90;;;;;;5072460;28;21775;-72
2022/01/12 11:38:47;;;;;;;4.20;1.83;;;4.30;99.90;;;;;;5073803;28;20448;-72
2022/01/12 11:41:24;;;;;;;3.00;1.40;;;4.60;99.90;;;;;;5072774;28;20500;-73
2022/01/12 11:43:59;;;;;;;7.10;1.77;;;4.70;99.90;;;;;;5075054;28;20428;-73
2022/01/12 11:46:32;;;;;;;5.93;1.93;;;4.40;99.90;;;;;;5072786;28;20531;-73
2022/01/12 11:49:03;;;;;;;2.50;1.40;;;4.60;99.90;;;;;;5074678;28;20425;-72
2022/01/12 11:51:43;;;;;;;5.63;1.80;;;4.80;99.90;;;;;;5057062;28;20455;-73
2022/01/12 11:54:16;;;;;;;4.10;1.40;;;4.90;99.90;;;;;;5072709;28;20427;-72
2022/01/12 11:57:00;;;;;;;6.70;2.53;;;5.00;99.90;;;;;;5074422;28;20429;-72
2022/01/12 11:59:32;;;;;;;3.17;1.70;;;4.70;99.90;;;;;;5073667;28;21319;-72
2022/01/12 12:02:09;;;;;;;5.10;1.70;;;4.00;99.90;;;;;;5072088;28;20453;-72
2022/01/12 12:04:39;;;;;;;3.40;1.60;;;3.60;99.90;;;;;;5074185;28;20458;-72
2022/01/12 12:07:09;;;;;;;2.97;1.73;;;3.70;99.90;;;;;;5066460;28;20450;-72
2022/01/12 12:09:42;;;;;;;5.90;2.23;;;3.90;99.90;;;;;;5075569;28;20827;-72
2022/01/12 12:12:20;;;;;;;2.57;2.20;;;3.70;99.90;;;;;;5075363;28;20541;-73
2022/01/12 12:14:52;;;;;;;3.90;1.37;;;3.50;99.90;;;;;;5075531;28;20536;-72
2022/01/12 12:17:26;;;;;;;7.23;3.43;;;3.80;99.90;;;;;;5074321;28;20748;-72
2022/01/12 12:19:54;;;;;;;3.20;1.97;;;4.30;99.90;;;;;;5072910;28;20482;-72
2022/01/12 12:22:25;;;;;;;3.70;1.13;;;3.90;99.90;;;;;;5074060;28;20539;-72
2022/01/12 12:25:01;;;;;;;3.90;1.00;;;3.70;99.90;;;;;;5057703;28;20455;-71
2022/01/12 12:27:34;;;;;;;9.30;2.47;;;3.90;99.90;;;;;;5074502;28;20457;-72
2022/01/12 12:30:09;;;;;;;3.13;1.13;;;4.10;99.90;;;;;;5071425;28;20508;-72
2022/01/12 12:32:40;;;;;;;2.70;1.63;;;4.00;99.90;;;;;;5074274;28;20450;-71
2022/01/12 12:35:17;;;;;;;4.20;1.20;;;4.00;99.90;;;;;;5073282;28;21058;-71
2022/01/12 12:37:51;;;;;;;2.87;1.53;;;3.80;99.90;;;;;;5075889;28;20446;-72
2022/01/12 12:40:36;;;;;;;5.30;1.37;;;3.80;99.90;;;;;;5078551;28;20888;-72
2022/01/12 12:43:18;;;;;;;2.57;1.40;;;3.70;99.90;;;;;;5077679;28;20908;-72
2022/01/12 12:45:54;;;;;;;4.60;2.60;;;4.00;99.90;;;;;;5075450;28;20446;-72
2022/01/12 12:48:29;;;;;;;3.40;1.40;;;3.70;99.90;;;;;;5077240;28;20469;-71
2022/01/12 12:50:59;;;;;;;2.90;1.43;;;3.90;99.90;;;;;;5077503;28;20446;-71
2022/01/12 12:53:28;;;;;;;4.60;1.77;;;3.70;99.90;;;;;;5068558;28;20450;-71
2022/01/12 12:55:56;;;;;;;3.03;1.83;;;4.40;99.90;;;;;;5074463;28;20842;-73
2022/01/12 12:58:26;;;;;;;20.13;3.27;;;4.50;99.90;;;;;;5077411;28;20880;-72
2022/01/12 13:01:04;;;;;;;3.10;1.50;;;4.90;99.90;;;;;;5078349;28;20537;-71
2022/01/12 13:03:31;;;;;;;8.80;2.07;;;4.80;99.90;;;;;;5078100;28;20868;-72
2022/01/12 13:05:59;;;;;;;7.37;3.20;;;4.30;99.90;;;;;;5078236;28;20509;-72
2022/01/12 13:08:26;;;;;;;5.77;1.47;;;4.00;99.90;;;;;;5077988;28;20423;-72
2022/01/12 13:10:53;;;;;;;3.40;1.60;;;4.00;99.90;;;;;;5067135;28;20489;-72
2022/01/12 13:13:20;;;;;;;5.13;1.50;;;4.00;99.90;;;;;;5078200;28;20871;-72
2022/01/12 13:15:47;;;;;;;4.73;2.20;;;3.60;99.90;;;;;;5078513;28;20496;-72
2022/01/12 13:18:21;;;;;;;6.00;2.70;;;3.50;99.90;;;;;;5078811;28;20446;-72
2022/01/12 13:23:43;;;;;;;6.53;1.80;;;3.30;99.90;;;;;;5077605;28;20907;-72
2022/01/12 13:26:13;;;;;;;3.77;2.30;;;3.20;99.90;;;;;;5077204;28;20515;-72
2022/01/12 13:28:42;;;;;;;4.33;1.90;;;3.20;99.90;;;;;;5078941;28;20712;-72
2022/01/12 13:31:11;;;;;;;1.43;1.33;;;3.10;99.90;;;;;;5078393;28;20494;-72
2022/01/12 13:33:42;;;;;;;4.70;1.47;;;3.10;99.90;;;;;;5078675;28;20446;-72
2022/01/12 13:36:13;;;;;;;3.90;1.73;;;3.10;99.90;;;;;;5077855;28;20527;-72
2022/01/12 13:38:41;;;;;;;5.00;1.20;;;3.10;99.90;;;;;;5077904;28;20435;-72
2022/01/12 13:41:15;;;;;;;3.13;1.90;;;3.10;99.90;;;;;;5076246;28;20553;-72
2022/01/12 13:43:48;;;;;;;2.20;1.30;;;3.20;99.90;;;;;;5077647;28;20479;-72
2022/01/12 13:46:18;;;;;;;6.13;2.63;;;3.30;99.90;;;;;;5078484;28;20454;-72
2022/01/12 13:49:06;;;;;;;5.87;1.77;;;3.30;99.90;;;;;;5076666;28;20481;-72
2022/01/12 13:51:37;;;;;;;2.27;1.17;;;3.30;99.90;;;;;;5077245;28;20533;-72
2022/01/12 13:54:08;;;;;;;3.50;2.13;;;3.30;99.90;;;;;;5075605;28;20450;-72
2022/01/12 13:56:40;;;;;;;4.43;2.13;;;3.20;99.90;;;;;;5077366;28;20478;-72
2022/01/12 13:59:07;;;;;;;2.93;1.30;;;3.20;99.90;;;;;;5076273;28;20573;-72
2022/01/12 14:01:36;;;;;;;5.37;2.33;;;3.10;99.90;;;;;;5076889;28;20581;-72
2022/01/12 14:04:12;;;;;;;5.27;1.90;;;3.10;99.90;;;;;;5077294;28;20505;-71
2022/01/12 14:06:46;;;;;;;3.73;1.60;;;3.20;99.90;;;;;;5076342;28;20460;-72
2022/01/12 14:09:26;;;;;;;3.10;1.50;;;3.20;99.90;;;;;;5074911;28;20473;-72
2022/01/12 14:11:54;;;;;;;3.53;1.50;;;3.10;99.90;;;;;;5072932;28;20722;-72
2022/01/12 14:14:23;;;;;;;5.70;1.80;;;3.10;99.90;;;;;;5072957;28;20513;-72
2022/01/12 14:16:50;;;;;;;4.27;0.87;;;3.10;99.90;;;;;;5056874;28;20826;-72
2022/01/12 14:19:19;;;;;;;4.23;1.80;;;3.00;99.90;;;;;;5071756;28;20541;-72
2022/01/12 14:21:59;;;;;;;4.10;1.67;;;3.00;99.90;;;;;;5075285;28;20581;-72